Airfield :
LOGIN :

Register | Disclaimer

   EN    FR    IT 

 










Legend :    VFR   Marginal VFR   IFR   Intensive IFR   Very Intensive IFR
Visi :
Ceiling :
>= 8 km
>= 3000ft
5 to 8 km
1000 to 3000 ft
1500m to 5 km
500 to 1000 ft
800 to 1500m
200 to 500 ft
< 800m
< 200 ft
Symbols :   Thunderstorms  Fog  Heavy snow  Heavy precipitations  Wind > 20 kt
SIGMETs :     Misc.  Thunderstorms  Icing  Turbulence  Mountain Waves  Volcanic Ashes






- Airport Elevation : -11 ft
- IATA code : AMS


EHAM - Amsterdam Schiphol

CURRENT METAR :
  • 041155Z 19013KT CAVOK 16/10 Q1019 NOSIG

EXPIRED METARs :
  • 041125Z 20014KT 9999 FEW019 17/10 Q1019 NOSIG
  • 041055Z 19012KT 9999 FEW016 16/10 Q1019 NOSIG
  • 041025Z 20011KT 170V230 9999 FEW014 16/11 Q1019 NOSIG
  • 040955Z 20012KT 160V220 9999 FEW014 15/11 Q1019 NOSIG
  • 040925Z 20012KT 9999 FEW012 14/11 Q1019 NOSIG

TAF TAF EHAM
Valid from the 04 at 12:00 until the 05 at 18:00 UTC


041102Z 0412/0518 20012KT 9999 FEW030
BECMG 0507/0510 21017G27KT BKN018
PROB40
TEMPO 0517/0518 6000 -RADZ BKN014



MET'MAP, your aeronautical weather chart ! - Copyright ORBIFLY December 2007 - Disclaimer

ORBIFLY MET'MAP TEAM :

Programming & Development : Alexandra Zaïnal
Original concept : Baudouin d'Aumeries
Technical & hardware support : Manuel Goepfert
Assistance : Marc-Olivier Méhu




SOURCES & CREDITS :

   NOAA